sensor_id;sensor_type;location;lat;lon;timestamp;pressure;altitude;pressure_sealevel;temperature
38114;BMP180;23926;53.222;6.354;2023-08-20T00:01:31;101932.00;;;19.00
38114;BMP180;23926;53.222;6.354;2023-08-20T00:03:57;101941.00;;;19.00
38114;BMP180;23926;53.222;6.354;2023-08-20T00:06:23;101940.00;;;18.90
38114;BMP180;23926;53.222;6.354;2023-08-20T00:08:49;101932.00;;;18.90
38114;BMP180;23926;53.222;6.354;2023-08-20T00:11:15;101928.00;;;18.90
38114;BMP180;23926;53.222;6.354;2023-08-20T00:13:41;101938.00;;;18.90
38114;BMP180;23926;53.222;6.354;2023-08-20T00:16:08;101940.00;;;18.90
38114;BMP180;23926;53.222;6.354;2023-08-20T00:18:34;101943.00;;;18.90
38114;BMP180;23926;53.222;6.354;2023-08-20T00:20:59;101945.00;;;18.90
38114;BMP180;23926;53.222;6.354;2023-08-20T00:23:26;101955.00;;;18.90
38114;BMP180;23926;53.222;6.354;2023-08-20T00:25:52;101954.00;;;18.80
38114;BMP180;23926;53.222;6.354;2023-08-20T00:28:19;101947.00;;;18.80
38114;BMP180;23926;53.222;6.354;2023-08-20T00:30:44;101946.00;;;18.80
38114;BMP180;23926;53.222;6.354;2023-08-20T00:33:10;101948.00;;;18.80
38114;BMP180;23926;53.222;6.354;2023-08-20T00:35:35;101941.00;;;18.80
38114;BMP180;23926;53.222;6.354;2023-08-20T00:38:01;101945.00;;;18.70
38114;BMP180;23926;53.222;6.354;2023-08-20T00:40:27;101946.00;;;18.70
38114;BMP180;23926;53.222;6.354;2023-08-20T00:42:53;101956.00;;;18.70
38114;BMP180;23926;53.222;6.354;2023-08-20T00:45:18;101957.00;;;18.70
38114;BMP180;23926;53.222;6.354;2023-08-20T00:47:44;101961.00;;;18.60
38114;BMP180;23926;53.222;6.354;2023-08-20T00:50:11;101948.00;;;18.50
38114;BMP180;23926;53.222;6.354;2023-08-20T00:52:37;101944.00;;;18.50
38114;BMP180;23926;53.222;6.354;2023-08-20T00:55:10;101964.00;;;18.50
38114;BMP180;23926;53.222;6.354;2023-08-20T00:57:40;101954.00;;;18.50
38114;BMP180;23926;53.222;6.354;2023-08-20T01:00:06;101961.00;;;18.60
38114;BMP180;23926;53.222;6.354;2023-08-20T01:02:33;101957.00;;;18.60
38114;BMP180;23926;53.222;6.354;2023-08-20T01:05:00;101960.00;;;18.60
38114;BMP180;23926;53.222;6.354;2023-08-20T01:10:40;101959.00;;;18.50
38114;BMP180;23926;53.222;6.354;2023-08-20T01:13:09;101956.00;;;18.40
38114;BMP180;23926;53.222;6.354;2023-08-20T01:15:34;101954.00;;;18.50
38114;BMP180;23926;53.222;6.354;2023-08-20T01:18:00;101958.00;;;18.50
38114;BMP180;23926;53.222;6.354;2023-08-20T01:20:33;101961.00;;;18.40
38114;BMP180;23926;53.222;6.354;2023-08-20T01:28:30;101963.00;;;18.30
38114;BMP180;23926;53.222;6.354;2023-08-20T01:30:58;101963.00;;;18.30
38114;BMP180;23926;53.222;6.354;2023-08-20T01:33:25;101969.00;;;18.30
38114;BMP180;23926;53.222;6.354;2023-08-20T01:35:54;101982.00;;;18.30
38114;BMP180;23926;53.222;6.354;2023-08-20T01:38:20;101988.00;;;18.30
38114;BMP180;23926;53.222;6.354;2023-08-20T01:40:46;101984.00;;;18.30
38114;BMP180;23926;53.222;6.354;2023-08-20T01:43:12;101983.00;;;18.30
38114;BMP180;23926;53.222;6.354;2023-08-20T01:45:37;101989.00;;;18.30
38114;BMP180;23926;53.222;6.354;2023-08-20T01:48:03;101995.00;;;18.30
38114;BMP180;23926;53.222;6.354;2023-08-20T01:50:29;101999.00;;;18.30
38114;BMP180;23926;53.222;6.354;2023-08-20T01:52:55;102005.00;;;18.20
38114;BMP180;23926;53.222;6.354;2023-08-20T01:55:20;102007.00;;;18.20
38114;BMP180;23926;53.222;6.354;2023-08-20T01:57:46;102014.00;;;18.20
38114;BMP180;23926;53.222;6.354;2023-08-20T02:00:12;102006.00;;;18.20
38114;BMP180;23926;53.222;6.354;2023-08-20T02:02:38;102008.00;;;18.10
38114;BMP180;23926;53.222;6.354;2023-08-20T02:05:03;102000.00;;;18.10
38114;BMP180;23926;53.222;6.354;2023-08-20T02:07:29;102014.00;;;18.10
38114;BMP180;23926;53.222;6.354;2023-08-20T02:09:54;102017.00;;;18.00
38114;BMP180;23926;53.222;6.354;2023-08-20T02:12:19;102020.00;;;18.00
38114;BMP180;23926;53.222;6.354;2023-08-20T02:14:45;102021.00;;;18.00
38114;BMP180;23926;53.222;6.354;2023-08-20T02:17:11;102005.00;;;17.90
38114;BMP180;23926;53.222;6.354;2023-08-20T02:19:37;101997.00;;;17.90
38114;BMP180;23926;53.222;6.354;2023-08-20T02:22:03;101991.00;;;17.90
38114;BMP180;23926;53.222;6.354;2023-08-20T02:24:28;101991.00;;;17.90
38114;BMP180;23926;53.222;6.354;2023-08-20T02:26:54;101990.00;;;18.00
38114;BMP180;23926;53.222;6.354;2023-08-20T02:29:19;101987.00;;;18.00
38114;BMP180;23926;53.222;6.354;2023-08-20T02:31:45;101981.00;;;18.00
38114;BMP180;23926;53.222;6.354;2023-08-20T02:34:10;101964.00;;;18.10
38114;BMP180;23926;53.222;6.354;2023-08-20T02:36:35;101972.00;;;18.00
38114;BMP180;23926;53.222;6.354;2023-08-20T02:39:01;101966.00;;;18.00
38114;BMP180;23926;53.222;6.354;2023-08-20T02:41:28;101955.00;;;18.00
38114;BMP180;23926;53.222;6.354;2023-08-20T02:43:54;101961.00;;;18.00
38114;BMP180;23926;53.222;6.354;2023-08-20T02:46:19;101974.00;;;18.00
38114;BMP180;23926;53.222;6.354;2023-08-20T02:48:45;101973.00;;;18.00
38114;BMP180;23926;53.222;6.354;2023-08-20T02:51:10;101965.00;;;17.90
38114;BMP180;23926;53.222;6.354;2023-08-20T02:53:35;101977.00;;;17.90
38114;BMP180;23926;53.222;6.354;2023-08-20T02:56:01;101979.00;;;17.90
38114;BMP180;23926;53.222;6.354;2023-08-20T02:58:28;101977.00;;;18.00
38114;BMP180;23926;53.222;6.354;2023-08-20T03:00:54;101975.00;;;18.00
38114;BMP180;23926;53.222;6.354;2023-08-20T03:03:19;101985.00;;;18.10
38114;BMP180;23926;53.222;6.354;2023-08-20T03:05:44;101966.00;;;18.20
38114;BMP180;23926;53.222;6.354;2023-08-20T03:08:10;101968.00;;;18.20
38114;BMP180;23926;53.222;6.354;2023-08-20T03:10:35;101944.00;;;18.20
38114;BMP180;23926;53.222;6.354;2023-08-20T03:13:02;101967.00;;;18.20
38114;BMP180;23926;53.222;6.354;2023-08-20T03:15:28;101957.00;;;18.20
38114;BMP180;23926;53.222;6.354;2023-08-20T03:17:53;101947.00;;;18.20
38114;BMP180;23926;53.222;6.354;2023-08-20T03:20:19;101947.00;;;18.20
38114;BMP180;23926;53.222;6.354;2023-08-20T03:22:44;101946.00;;;18.20
38114;BMP180;23926;53.222;6.354;2023-08-20T03:25:10;101939.00;;;18.20
38114;BMP180;23926;53.222;6.354;2023-08-20T03:27:35;101941.00;;;18.10
38114;BMP180;23926;53.222;6.354;2023-08-20T03:30:01;101947.00;;;17.90
38114;BMP180;23926;53.222;6.354;2023-08-20T03:32:27;101955.00;;;17.90
38114;BMP180;23926;53.222;6.354;2023-08-20T03:34:52;101956.00;;;17.80
38114;BMP180;23926;53.222;6.354;2023-08-20T03:37:19;101946.00;;;17.90
38114;BMP180;23926;53.222;6.354;2023-08-20T03:39:44;101950.00;;;18.00
38114;BMP180;23926;53.222;6.354;2023-08-20T03:42:10;101963.00;;;18.00
38114;BMP180;23926;53.222;6.354;2023-08-20T03:44:35;101970.00;;;18.10
38114;BMP180;23926;53.222;6.354;2023-08-20T03:47:00;101962.00;;;18.10
38114;BMP180;23926;53.222;6.354;2023-08-20T03:49:26;101961.00;;;18.10
38114;BMP180;23926;53.222;6.354;2023-08-20T03:51:51;101967.00;;;18.10
38114;BMP180;23926;53.222;6.354;2023-08-20T03:54:17;101969.00;;;18.10
38114;BMP180;23926;53.222;6.354;2023-08-20T03:56:42;101977.00;;;18.10
38114;BMP180;23926;53.222;6.354;2023-08-20T03:59:08;101983.00;;;18.10
38114;BMP180;23926;53.222;6.354;2023-08-20T04:01:33;101986.00;;;18.10
38114;BMP180;23926;53.222;6.354;2023-08-20T04:04:01;101989.00;;;18.20
38114;BMP180;23926;53.222;6.354;2023-08-20T04:06:26;102003.00;;;18.20
38114;BMP180;23926;53.222;6.354;2023-08-20T04:08:51;101992.00;;;18.20
38114;BMP180;23926;53.222;6.354;2023-08-20T04:11:17;102003.00;;;18.20
38114;BMP180;23926;53.222;6.354;2023-08-20T04:13:42;101991.00;;;18.30
38114;BMP180;23926;53.222;6.354;2023-08-20T04:16:09;101997.00;;;18.30
38114;BMP180;23926;53.222;6.354;2023-08-20T04:18:34;102001.00;;;18.30
38114;BMP180;23926;53.222;6.354;2023-08-20T04:21:00;102000.00;;;18.30
38114;BMP180;23926;53.222;6.354;2023-08-20T04:23:25;102006.00;;;18.40
38114;BMP180;23926;53.222;6.354;2023-08-20T04:25:52;102007.00;;;18.30
38114;BMP180;23926;53.222;6.354;2023-08-20T04:28:17;102022.00;;;18.30
38114;BMP180;23926;53.222;6.354;2023-08-20T04:30:42;102013.00;;;18.30
38114;BMP180;23926;53.222;6.354;2023-08-20T04:33:09;102013.00;;;18.30
38114;BMP180;23926;53.222;6.354;2023-08-20T04:35:34;102016.00;;;18.30
38114;BMP180;23926;53.222;6.354;2023-08-20T04:38:00;102013.00;;;18.30
38114;BMP180;23926;53.222;6.354;2023-08-20T04:40:25;102013.00;;;18.20
38114;BMP180;23926;53.222;6.354;2023-08-20T04:42:51;102020.00;;;18.10
38114;BMP180;23926;53.222;6.354;2023-08-20T04:45:16;102016.00;;;18.10
38114;BMP180;23926;53.222;6.354;2023-08-20T04:47:44;102020.00;;;18.20
38114;BMP180;23926;53.222;6.354;2023-08-20T04:50:10;102023.00;;;18.20
38114;BMP180;23926;53.222;6.354;2023-08-20T04:52:35;102027.00;;;18.20
38114;BMP180;23926;53.222;6.354;2023-08-20T04:55:01;102040.00;;;18.20
38114;BMP180;23926;53.222;6.354;2023-08-20T04:57:27;102025.00;;;18.20
38114;BMP180;23926;53.222;6.354;2023-08-20T04:59:52;102030.00;;;18.30
38114;BMP180;23926;53.222;6.354;2023-08-20T05:02:18;102031.00;;;18.30
38114;BMP180;23926;53.222;6.354;2023-08-20T05:04:44;102036.00;;;18.30
38114;BMP180;23926;53.222;6.354;2023-08-20T05:07:09;102036.00;;;18.40
38114;BMP180;23926;53.222;6.354;2023-08-20T05:09:35;102034.00;;;18.60
38114;BMP180;23926;53.222;6.354;2023-08-20T05:12:00;102041.00;;;18.70
38114;BMP180;23926;53.222;6.354;2023-08-20T05:14:26;102040.00;;;18.80
38114;BMP180;23926;53.222;6.354;2023-08-20T05:16:51;102038.00;;;18.90
38114;BMP180;23926;53.222;6.354;2023-08-20T05:19:17;102045.00;;;19.00
38114;BMP180;23926;53.222;6.354;2023-08-20T05:21:42;102053.00;;;19.00
38114;BMP180;23926;53.222;6.354;2023-08-20T05:24:08;102048.00;;;19.10
38114;BMP180;23926;53.222;6.354;2023-08-20T05:26:34;102051.00;;;19.20
38114;BMP180;23926;53.222;6.354;2023-08-20T05:28:59;102045.00;;;19.20
38114;BMP180;23926;53.222;6.354;2023-08-20T05:31:25;102046.00;;;19.20
38114;BMP180;23926;53.222;6.354;2023-08-20T05:33:50;102044.00;;;19.40
38114;BMP180;23926;53.222;6.354;2023-08-20T05:36:16;102046.00;;;19.40
38114;BMP180;23926;53.222;6.354;2023-08-20T05:38:41;102047.00;;;19.50
38114;BMP180;23926;53.222;6.354;2023-08-20T05:41:08;102044.00;;;19.60
38114;BMP180;23926;53.222;6.354;2023-08-20T05:43:33;102042.00;;;19.50
38114;BMP180;23926;53.222;6.354;2023-08-20T05:45:59;102047.00;;;19.60
38114;BMP180;23926;53.222;6.354;2023-08-20T05:48:24;102044.00;;;19.70
38114;BMP180;23926;53.222;6.354;2023-08-20T05:50:50;102048.00;;;19.70
38114;BMP180;23926;53.222;6.354;2023-08-20T05:53:15;102045.00;;;19.90
38114;BMP180;23926;53.222;6.354;2023-08-20T05:55:41;102042.00;;;19.90
38114;BMP180;23926;53.222;6.354;2023-08-20T05:58:06;102044.00;;;20.00
38114;BMP180;23926;53.222;6.354;2023-08-20T06:00:31;102034.00;;;20.00
38114;BMP180;23926;53.222;6.354;2023-08-20T06:02:57;102033.00;;;20.20
38114;BMP180;23926;53.222;6.354;2023-08-20T06:05:22;102043.00;;;20.30
38114;BMP180;23926;53.222;6.354;2023-08-20T06:07:48;102044.00;;;20.30
38114;BMP180;23926;53.222;6.354;2023-08-20T06:10:13;102034.00;;;20.30
38114;BMP180;23926;53.222;6.354;2023-08-20T06:12:39;102042.00;;;20.40
38114;BMP180;23926;53.222;6.354;2023-08-20T06:15:05;102043.00;;;20.40
38114;BMP180;23926;53.222;6.354;2023-08-20T06:17:30;102041.00;;;20.50
38114;BMP180;23926;53.222;6.354;2023-08-20T06:19:56;102035.00;;;20.50
38114;BMP180;23926;53.222;6.354;2023-08-20T06:22:21;102040.00;;;20.50
38114;BMP180;23926;53.222;6.354;2023-08-20T06:24:47;102046.00;;;20.50
38114;BMP180;23926;53.222;6.354;2023-08-20T06:27:12;102046.00;;;20.50
38114;BMP180;23926;53.222;6.354;2023-08-20T06:29:38;102048.00;;;20.50
38114;BMP180;23926;53.222;6.354;2023-08-20T06:32:04;102032.00;;;20.60
38114;BMP180;23926;53.222;6.354;2023-08-20T06:34:30;102048.00;;;20.70
38114;BMP180;23926;53.222;6.354;2023-08-20T06:36:55;102042.00;;;20.90
38114;BMP180;23926;53.222;6.354;2023-08-20T06:39:21;102047.00;;;21.00
38114;BMP180;23926;53.222;6.354;2023-08-20T06:41:46;102046.00;;;21.10
38114;BMP180;23926;53.222;6.354;2023-08-20T06:44:12;102048.00;;;21.10
38114;BMP180;23926;53.222;6.354;2023-08-20T06:46:37;102053.00;;;21.20
38114;BMP180;23926;53.222;6.354;2023-08-20T06:49:03;102053.00;;;21.20
38114;BMP180;23926;53.222;6.354;2023-08-20T06:51:28;102058.00;;;21.40
38114;BMP180;23926;53.222;6.354;2023-08-20T06:53:54;102060.00;;;21.40
38114;BMP180;23926;53.222;6.354;2023-08-20T06:56:20;102066.00;;;21.60
38114;BMP180;23926;53.222;6.354;2023-08-20T06:58:46;102071.00;;;21.70
38114;BMP180;23926;53.222;6.354;2023-08-20T07:01:12;102068.00;;;21.80
38114;BMP180;23926;53.222;6.354;2023-08-20T07:03:41;102069.00;;;21.90
38114;BMP180;23926;53.222;6.354;2023-08-20T07:06:08;102073.00;;;22.20
38114;BMP180;23926;53.222;6.354;2023-08-20T07:08:39;102062.00;;;22.30
38114;BMP180;23926;53.222;6.354;2023-08-20T07:11:06;102073.00;;;22.20
38114;BMP180;23926;53.222;6.354;2023-08-20T07:13:31;102079.00;;;22.30
38114;BMP180;23926;53.222;6.354;2023-08-20T07:15:57;102081.00;;;22.30
38114;BMP180;23926;53.222;6.354;2023-08-20T07:18:22;102075.00;;;22.40
38114;BMP180;23926;53.222;6.354;2023-08-20T07:20:47;102080.00;;;22.60
38114;BMP180;23926;53.222;6.354;2023-08-20T07:23:13;102084.00;;;22.60
38114;BMP180;23926;53.222;6.354;2023-08-20T07:25:40;102078.00;;;22.70
38114;BMP180;23926;53.222;6.354;2023-08-20T07:28:07;102073.00;;;22.70
38114;BMP180;23926;53.222;6.354;2023-08-20T07:30:34;102081.00;;;22.80
38114;BMP180;23926;53.222;6.354;2023-08-20T07:33:00;102084.00;;;22.90
38114;BMP180;23926;53.222;6.354;2023-08-20T07:35:26;102084.00;;;23.00
38114;BMP180;23926;53.222;6.354;2023-08-20T07:37:52;102092.00;;;23.10
38114;BMP180;23926;53.222;6.354;2023-08-20T07:40:17;102092.00;;;23.30
38114;BMP180;23926;53.222;6.354;2023-08-20T07:42:43;102083.00;;;23.50
38114;BMP180;23926;53.222;6.354;2023-08-20T07:45:09;102088.00;;;23.60
38114;BMP180;23926;53.222;6.354;2023-08-20T07:47:38;102082.00;;;23.80
38114;BMP180;23926;53.222;6.354;2023-08-20T07:50:04;102084.00;;;24.10
38114;BMP180;23926;53.222;6.354;2023-08-20T07:52:31;102083.00;;;24.20
38114;BMP180;23926;53.222;6.354;2023-08-20T07:54:56;102079.00;;;24.00
38114;BMP180;23926;53.222;6.354;2023-08-20T07:57:22;102086.00;;;24.00
38114;BMP180;23926;53.222;6.354;2023-08-20T07:59:49;102084.00;;;24.20
38114;BMP180;23926;53.222;6.354;2023-08-20T08:02:14;102081.00;;;24.50
38114;BMP180;23926;53.222;6.354;2023-08-20T08:04:39;102087.00;;;24.70
38114;BMP180;23926;53.222;6.354;2023-08-20T08:07:05;102091.00;;;24.70
38114;BMP180;23926;53.222;6.354;2023-08-20T08:09:32;102093.00;;;24.70
38114;BMP180;23926;53.222;6.354;2023-08-20T08:11:58;102100.00;;;24.70
38114;BMP180;23926;53.222;6.354;2023-08-20T08:14:24;102100.00;;;24.80
38114;BMP180;23926;53.222;6.354;2023-08-20T08:16:49;102103.00;;;25.00
38114;BMP180;23926;53.222;6.354;2023-08-20T08:19:15;102103.00;;;25.00
38114;BMP180;23926;53.222;6.354;2023-08-20T08:21:42;102107.00;;;25.20
38114;BMP180;23926;53.222;6.354;2023-08-20T08:24:08;102108.00;;;25.00
38114;BMP180;23926;53.222;6.354;2023-08-20T08:26:35;102102.00;;;25.00
38114;BMP180;23926;53.222;6.354;2023-08-20T08:29:02;102107.00;;;24.90
38114;BMP180;23926;53.222;6.354;2023-08-20T08:31:27;102105.00;;;25.00
38114;BMP180;23926;53.222;6.354;2023-08-20T08:33:53;102116.00;;;25.20
38114;BMP180;23926;53.222;6.354;2023-08-20T08:36:18;102118.00;;;25.30
38114;BMP180;23926;53.222;6.354;2023-08-20T08:38:44;102129.00;;;25.30
38114;BMP180;23926;53.222;6.354;2023-08-20T08:41:11;102128.00;;;25.60
38114;BMP180;23926;53.222;6.354;2023-08-20T08:43:40;102129.00;;;25.50
38114;BMP180;23926;53.222;6.354;2023-08-20T08:46:07;102130.00;;;25.50
38114;BMP180;23926;53.222;6.354;2023-08-20T08:48:34;102134.00;;;25.80
38114;BMP180;23926;53.222;6.354;2023-08-20T08:51:01;102120.00;;;25.80
38114;BMP180;23926;53.222;6.354;2023-08-20T08:53:27;102125.00;;;25.90
38114;BMP180;23926;53.222;6.354;2023-08-20T08:55:52;102139.00;;;26.00
38114;BMP180;23926;53.222;6.354;2023-08-20T08:58:18;102131.00;;;26.10
38114;BMP180;23926;53.222;6.354;2023-08-20T09:00:43;102146.00;;;26.10
38114;BMP180;23926;53.222;6.354;2023-08-20T09:03:09;102143.00;;;25.90
38114;BMP180;23926;53.222;6.354;2023-08-20T09:05:46;102144.00;;;25.90
38114;BMP180;23926;53.222;6.354;2023-08-20T09:08:21;102142.00;;;25.90
38114;BMP180;23926;53.222;6.354;2023-08-20T09:10:50;102148.00;;;25.90
38114;BMP180;23926;53.222;6.354;2023-08-20T09:13:16;102154.00;;;26.30
38114;BMP180;23926;53.222;6.354;2023-08-20T09:15:41;102159.00;;;26.70
38114;BMP180;23926;53.222;6.354;2023-08-20T09:18:09;102151.00;;;26.80
38114;BMP180;23926;53.222;6.354;2023-08-20T09:20:38;102161.00;;;26.30
38114;BMP180;23926;53.222;6.354;2023-08-20T09:23:13;102164.00;;;26.10
38114;BMP180;23926;53.222;6.354;2023-08-20T09:25:39;102172.00;;;26.00
38114;BMP180;23926;53.222;6.354;2023-08-20T09:28:04;102164.00;;;26.00
38114;BMP180;23926;53.222;6.354;2023-08-20T09:30:30;102167.00;;;25.90
38114;BMP180;23926;53.222;6.354;2023-08-20T09:33:06;102170.00;;;26.00
38114;BMP180;23926;53.222;6.354;2023-08-20T09:35:32;102176.00;;;26.00
38114;BMP180;23926;53.222;6.354;2023-08-20T09:38:02;102172.00;;;26.30
38114;BMP180;23926;53.222;6.354;2023-08-20T09:40:29;102174.00;;;26.70
38114;BMP180;23926;53.222;6.354;2023-08-20T09:42:54;102168.00;;;26.80
38114;BMP180;23926;53.222;6.354;2023-08-20T09:45:21;102162.00;;;26.80
38114;BMP180;23926;53.222;6.354;2023-08-20T09:47:49;102157.00;;;26.80
38114;BMP180;23926;53.222;6.354;2023-08-20T09:50:17;102168.00;;;26.70
38114;BMP180;23926;53.222;6.354;2023-08-20T09:55:21;102175.00;;;26.30
38114;BMP180;23926;53.222;6.354;2023-08-20T09:57:48;102163.00;;;26.30
38114;BMP180;23926;53.222;6.354;2023-08-20T10:00:14;102174.00;;;26.30
38114;BMP180;23926;53.222;6.354;2023-08-20T10:02:43;102162.00;;;26.10
38114;BMP180;23926;53.222;6.354;2023-08-20T10:05:10;102170.00;;;26.10
38114;BMP180;23926;53.222;6.354;2023-08-20T10:07:36;102173.00;;;25.70
38114;BMP180;23926;53.222;6.354;2023-08-20T10:10:04;102171.00;;;25.70
38114;BMP180;23926;53.222;6.354;2023-08-20T10:12:30;102179.00;;;25.90
38114;BMP180;23926;53.222;6.354;2023-08-20T10:14:56;102181.00;;;26.10
38114;BMP180;23926;53.222;6.354;2023-08-20T10:17:29;102190.00;;;26.50
38114;BMP180;23926;53.222;6.354;2023-08-20T10:19:57;102180.00;;;27.00
38114;BMP180;23926;53.222;6.354;2023-08-20T10:22:23;102184.00;;;27.00
38114;BMP180;23926;53.222;6.354;2023-08-20T10:24:57;102189.00;;;27.10
38114;BMP180;23926;53.222;6.354;2023-08-20T10:27:32;102186.00;;;27.10
38114;BMP180;23926;53.222;6.354;2023-08-20T10:29:59;102176.00;;;27.30
38114;BMP180;23926;53.222;6.354;2023-08-20T10:32:45;102177.00;;;26.80
38114;BMP180;23926;53.222;6.354;2023-08-20T10:35:14;102179.00;;;26.60
38114;BMP180;23926;53.222;6.354;2023-08-20T10:38:04;102180.00;;;26.50
38114;BMP180;23926;53.222;6.354;2023-08-20T10:48:33;102173.00;;;27.00
38114;BMP180;23926;53.222;6.354;2023-08-20T10:51:15;102167.00;;;27.30
38114;BMP180;23926;53.222;6.354;2023-08-20T10:53:48;102174.00;;;27.60
38114;BMP180;23926;53.222;6.354;2023-08-20T10:56:15;102169.00;;;28.00
38114;BMP180;23926;53.222;6.354;2023-08-20T10:58:45;102168.00;;;28.00
38114;BMP180;23926;53.222;6.354;2023-08-20T11:01:21;102165.00;;;28.00
38114;BMP180;23926;53.222;6.354;2023-08-20T11:03:50;102168.00;;;28.00
38114;BMP180;23926;53.222;6.354;2023-08-20T11:06:16;102173.00;;;28.20
38114;BMP180;23926;53.222;6.354;2023-08-20T11:08:44;102171.00;;;27.90
38114;BMP180;23926;53.222;6.354;2023-08-20T11:11:11;102169.00;;;27.90
38114;BMP180;23926;53.222;6.354;2023-08-20T11:13:37;102180.00;;;27.90
38114;BMP180;23926;53.222;6.354;2023-08-20T11:16:03;102187.00;;;27.60
38114;BMP180;23926;53.222;6.354;2023-08-20T11:18:32;102186.00;;;27.10
38114;BMP180;23926;53.222;6.354;2023-08-20T11:20:59;102179.00;;;26.80
38114;BMP180;23926;53.222;6.354;2023-08-20T11:23:25;102185.00;;;27.00
38114;BMP180;23926;53.222;6.354;2023-08-20T11:25:51;102175.00;;;26.80
38114;BMP180;23926;53.222;6.354;2023-08-20T11:28:17;102169.00;;;26.70
38114;BMP180;23926;53.222;6.354;2023-08-20T11:30:43;102178.00;;;26.60
38114;BMP180;23926;53.222;6.354;2023-08-20T11:33:09;102174.00;;;27.00
38114;BMP180;23926;53.222;6.354;2023-08-20T11:35:35;102176.00;;;26.90
38114;BMP180;23926;53.222;6.354;2023-08-20T11:38:05;102178.00;;;27.00
38114;BMP180;23926;53.222;6.354;2023-08-20T11:40:31;102178.00;;;27.20
38114;BMP180;23926;53.222;6.354;2023-08-20T11:42:57;102182.00;;;27.40
38114;BMP180;23926;53.222;6.354;2023-08-20T11:45:22;102189.00;;;27.50
38114;BMP180;23926;53.222;6.354;2023-08-20T11:47:48;102176.00;;;27.60
38114;BMP180;23926;53.222;6.354;2023-08-20T11:50:13;102191.00;;;27.60
38114;BMP180;23926;53.222;6.354;2023-08-20T11:52:40;102188.00;;;27.90
38114;BMP180;23926;53.222;6.354;2023-08-20T11:55:06;102188.00;;;27.80
38114;BMP180;23926;53.222;6.354;2023-08-20T11:57:31;102184.00;;;27.60
38114;BMP180;23926;53.222;6.354;2023-08-20T12:00:05;102188.00;;;27.60
38114;BMP180;23926;53.222;6.354;2023-08-20T12:02:34;102188.00;;;27.80
38114;BMP180;23926;53.222;6.354;2023-08-20T12:04:59;102177.00;;;27.90
38114;BMP180;23926;53.222;6.354;2023-08-20T12:07:28;102179.00;;;27.80
38114;BMP180;23926;53.222;6.354;2023-08-20T12:09:54;102182.00;;;27.90
38114;BMP180;23926;53.222;6.354;2023-08-20T12:12:20;102184.00;;;28.20
38114;BMP180;23926;53.222;6.354;2023-08-20T12:14:48;102172.00;;;28.10
38114;BMP180;23926;53.222;6.354;2023-08-20T12:17:18;102180.00;;;28.40
38114;BMP180;23926;53.222;6.354;2023-08-20T12:19:45;102182.00;;;28.30
38114;BMP180;23926;53.222;6.354;2023-08-20T12:22:11;102175.00;;;28.20
38114;BMP180;23926;53.222;6.354;2023-08-20T12:24:38;102172.00;;;28.10
38114;BMP180;23926;53.222;6.354;2023-08-20T12:27:04;102171.00;;;28.30
38114;BMP180;23926;53.222;6.354;2023-08-20T12:29:30;102181.00;;;28.30
38114;BMP180;23926;53.222;6.354;2023-08-20T12:31:55;102178.00;;;28.30
38114;BMP180;23926;53.222;6.354;2023-08-20T12:34:21;102174.00;;;28.10
38114;BMP180;23926;53.222;6.354;2023-08-20T12:36:51;102170.00;;;28.00
38114;BMP180;23926;53.222;6.354;2023-08-20T12:39:16;102169.00;;;28.10
38114;BMP180;23926;53.222;6.354;2023-08-20T12:41:41;102182.00;;;28.10
38114;BMP180;23926;53.222;6.354;2023-08-20T12:44:08;102175.00;;;28.10
38114;BMP180;23926;53.222;6.354;2023-08-20T12:46:33;102172.00;;;28.10
38114;BMP180;23926;53.222;6.354;2023-08-20T12:48:59;102170.00;;;28.20
38114;BMP180;23926;53.222;6.354;2023-08-20T12:51:25;102178.00;;;28.10
38114;BMP180;23926;53.222;6.354;2023-08-20T12:53:51;102175.00;;;28.10
38114;BMP180;23926;53.222;6.354;2023-08-20T12:56:16;102183.00;;;28.00
38114;BMP180;23926;53.222;6.354;2023-08-20T12:58:42;102181.00;;;27.90
38114;BMP180;23926;53.222;6.354;2023-08-20T13:01:07;102169.00;;;27.90
38114;BMP180;23926;53.222;6.354;2023-08-20T13:03:34;102179.00;;;28.10
38114;BMP180;23926;53.222;6.354;2023-08-20T13:06:00;102178.00;;;28.30
38114;BMP180;23926;53.222;6.354;2023-08-20T13:08:25;102181.00;;;28.20
38114;BMP180;23926;53.222;6.354;2023-08-20T13:10:56;102181.00;;;28.00
38114;BMP180;23926;53.222;6.354;2023-08-20T13:13:22;102189.00;;;28.20
38114;BMP180;23926;53.222;6.354;2023-08-20T13:15:50;102191.00;;;28.20
38114;BMP180;23926;53.222;6.354;2023-08-20T13:18:16;102193.00;;;28.20
38114;BMP180;23926;53.222;6.354;2023-08-20T13:20:42;102185.00;;;28.10
38114;BMP180;23926;53.222;6.354;2023-08-20T13:23:08;102188.00;;;28.30
38114;BMP180;23926;53.222;6.354;2023-08-20T13:25:34;102184.00;;;28.60
38114;BMP180;23926;53.222;6.354;2023-08-20T13:27:59;102184.00;;;28.70
38114;BMP180;23926;53.222;6.354;2023-08-20T13:30:25;102190.00;;;28.60
38114;BMP180;23926;53.222;6.354;2023-08-20T13:32:50;102194.00;;;28.60
38114;BMP180;23926;53.222;6.354;2023-08-20T13:35:16;102191.00;;;28.50
38114;BMP180;23926;53.222;6.354;2023-08-20T13:37:42;102190.00;;;28.60
38114;BMP180;23926;53.222;6.354;2023-08-20T13:40:08;102189.00;;;28.30
38114;BMP180;23926;53.222;6.354;2023-08-20T13:42:35;102187.00;;;28.60
38114;BMP180;23926;53.222;6.354;2023-08-20T13:45:01;102191.00;;;28.90
38114;BMP180;23926;53.222;6.354;2023-08-20T13:47:27;102186.00;;;28.70
38114;BMP180;23926;53.222;6.354;2023-08-20T13:49:52;102179.00;;;28.90
38114;BMP180;23926;53.222;6.354;2023-08-20T13:52:18;102186.00;;;28.70
38114;BMP180;23926;53.222;6.354;2023-08-20T13:54:43;102189.00;;;29.00
38114;BMP180;23926;53.222;6.354;2023-08-20T13:57:09;102182.00;;;29.10
38114;BMP180;23926;53.222;6.354;2023-08-20T13:59:34;102190.00;;;29.10
38114;BMP180;23926;53.222;6.354;2023-08-20T14:02:00;102190.00;;;29.20
38114;BMP180;23926;53.222;6.354;2023-08-20T14:04:25;102191.00;;;29.00
38114;BMP180;23926;53.222;6.354;2023-08-20T14:06:51;102194.00;;;28.80
38114;BMP180;23926;53.222;6.354;2023-08-20T14:09:16;102193.00;;;28.80
38114;BMP180;23926;53.222;6.354;2023-08-20T14:11:45;102185.00;;;28.80